sensor_id;sensor_type;location;lat;lon;timestamp;pressure;altitude;pressure_sealevel;temperature;humidity
54882;BME280;40775;51.448;4.742;2023-01-10T00:01:23;101211.84;;;7.61;100.00
54882;BME280;40775;51.448;4.742;2023-01-10T00:03:50;101210.47;;;7.70;100.00
54882;BME280;40775;51.448;4.742;2023-01-10T00:06:18;101208.75;;;7.71;100.00
54882;BME280;40775;51.448;4.742;2023-01-10T00:08:45;101212.38;;;7.74;100.00
54882;BME280;40775;51.448;4.742;2023-01-10T00:11:12;101216.66;;;7.72;100.00
54882;BME280;40775;51.448;4.742;2023-01-10T00:14:17;101222.59;;;7.68;100.00
54882;BME280;40775;51.448;4.742;2023-01-10T00:16:44;101229.78;;;7.74;100.00
54882;BME280;40775;51.448;4.742;2023-01-10T00:19:11;101240.28;;;7.75;100.00
54882;BME280;40775;51.448;4.742;2023-01-10T00:21:38;101247.34;;;7.78;100.00
54882;BME280;40775;51.448;4.742;2023-01-10T00:24:06;101250.78;;;7.77;100.00
54882;BME280;40775;51.448;4.742;2023-01-10T00:26:50;101249.25;;;7.82;100.00
54882;BME280;40775;51.448;4.742;2023-01-10T00:29:25;101252.91;;;7.87;100.00
54882;BME280;40775;51.448;4.742;2023-01-10T00:31:53;101255.63;;;7.90;100.00
54882;BME280;40775;51.448;4.742;2023-01-10T00:34:21;101256.34;;;7.86;100.00
54882;BME280;40775;51.448;4.742;2023-01-10T00:36:48;101264.38;;;7.91;100.00
54882;BME280;40775;51.448;4.742;2023-01-10T00:39:16;101265.19;;;7.90;100.00
54882;BME280;40775;51.448;4.742;2023-01-10T00:41:45;101276.88;;;7.98;100.00
54882;BME280;40775;51.448;4.742;2023-01-10T00:44:31;101278.53;;;7.96;100.00
54882;BME280;40775;51.448;4.742;2023-01-10T00:46:58;101278.38;;;7.93;100.00
54882;BME280;40775;51.448;4.742;2023-01-10T00:49:25;101281.84;;;7.92;100.00
54882;BME280;40775;51.448;4.742;2023-01-10T00:51:52;101278.59;;;7.97;100.00
54882;BME280;40775;51.448;4.742;2023-01-10T00:54:23;101284.59;;;7.95;100.00
54882;BME280;40775;51.448;4.742;2023-01-10T00:56:51;101285.41;;;7.94;100.00
54882;BME280;40775;51.448;4.742;2023-01-10T00:59:18;101294.06;;;7.93;100.00
54882;BME280;40775;51.448;4.742;2023-01-10T01:01:45;101298.56;;;7.95;100.00
54882;BME280;40775;51.448;4.742;2023-01-10T01:04:12;101308.34;;;8.01;100.00
54882;BME280;40775;51.448;4.742;2023-01-10T01:06:39;101310.13;;;8.02;100.00
54882;BME280;40775;51.448;4.742;2023-01-10T01:09:06;101304.91;;;8.02;100.00
54882;BME280;40775;51.448;4.742;2023-01-10T01:11:33;101306.84;;;8.07;100.00
54882;BME280;40775;51.448;4.742;2023-01-10T01:14:00;101321.03;;;8.14;100.00
54882;BME280;40775;51.448;4.742;2023-01-10T01:16:27;101315.69;;;8.11;100.00
54882;BME280;40775;51.448;4.742;2023-01-10T01:18:54;101315.81;;;8.14;100.00
54882;BME280;40775;51.448;4.742;2023-01-10T01:21:21;101326.03;;;8.08;100.00
54882;BME280;40775;51.448;4.742;2023-01-10T01:23:48;101320.88;;;8.10;100.00
54882;BME280;40775;51.448;4.742;2023-01-10T01:26:16;101323.53;;;8.11;100.00
54882;BME280;40775;51.448;4.742;2023-01-10T01:28:43;101333.16;;;8.12;100.00
54882;BME280;40775;51.448;4.742;2023-01-10T01:31:10;101330.59;;;8.14;100.00
54882;BME280;40775;51.448;4.742;2023-01-10T01:33:38;101326.25;;;8.14;100.00
54882;BME280;40775;51.448;4.742;2023-01-10T01:36:10;101334.09;;;8.14;100.00
54882;BME280;40775;51.448;4.742;2023-01-10T01:38:38;101342.06;;;8.17;100.00
54882;BME280;40775;51.448;4.742;2023-01-10T01:41:06;101336.63;;;8.11;100.00
54882;BME280;40775;51.448;4.742;2023-01-10T01:44:14;101339.28;;;8.13;100.00
54882;BME280;40775;51.448;4.742;2023-01-10T01:47:10;101351.47;;;8.12;100.00
54882;BME280;40775;51.448;4.742;2023-01-10T01:49:41;101350.63;;;8.13;100.00
54882;BME280;40775;51.448;4.742;2023-01-10T01:52:21;101350.47;;;8.09;100.00
54882;BME280;40775;51.448;4.742;2023-01-10T01:54:53;101352.19;;;8.08;100.00
54882;BME280;40775;51.448;4.742;2023-01-10T01:57:25;101363.31;;;8.02;100.00
54882;BME280;40775;51.448;4.742;2023-01-10T01:59:54;101363.38;;;8.04;100.00
54882;BME280;40775;51.448;4.742;2023-01-10T02:02:30;101363.59;;;8.10;100.00
54882;BME280;40775;51.448;4.742;2023-01-10T02:05:07;101362.53;;;8.05;100.00
54882;BME280;40775;51.448;4.742;2023-01-10T02:07:40;101370.16;;;7.99;100.00
54882;BME280;40775;51.448;4.742;2023-01-10T02:10:16;101371.97;;;8.01;100.00
54882;BME280;40775;51.448;4.742;2023-01-10T02:12:46;101374.53;;;8.00;100.00
54882;BME280;40775;51.448;4.742;2023-01-10T02:15:15;101374.66;;;8.03;100.00
54882;BME280;40775;51.448;4.742;2023-01-10T02:17:46;101367.53;;;7.99;100.00
54882;BME280;40775;51.448;4.742;2023-01-10T02:20:17;101370.44;;;8.06;100.00
54882;BME280;40775;51.448;4.742;2023-01-10T02:23:34;101372.22;;;8.07;100.00
54882;BME280;40775;51.448;4.742;2023-01-10T02:29:13;101360.69;;;8.02;100.00
54882;BME280;40775;51.448;4.742;2023-01-10T02:41:40;101390.63;;;8.11;100.00
54882;BME280;40775;51.448;4.742;2023-01-10T02:47:11;101399.31;;;8.10;100.00
54882;BME280;40775;51.448;4.742;2023-01-10T02:49:47;101392.41;;;8.12;100.00
54882;BME280;40775;51.448;4.742;2023-01-10T02:52:27;101398.41;;;8.09;100.00
54882;BME280;40775;51.448;4.742;2023-01-10T02:54:59;101392.59;;;8.16;100.00
54882;BME280;40775;51.448;4.742;2023-01-10T02:57:50;101394.25;;;8.14;100.00
54882;BME280;40775;51.448;4.742;2023-01-10T03:06:33;101407.22;;;8.11;100.00
54882;BME280;40775;51.448;4.742;2023-01-10T03:09:34;101412.50;;;8.13;100.00
54882;BME280;40775;51.448;4.742;2023-01-10T03:12:30;101409.00;;;8.12;100.00
54882;BME280;40775;51.448;4.742;2023-01-10T03:14:58;101408.94;;;8.11;100.00
54882;BME280;40775;51.448;4.742;2023-01-10T03:17:27;101407.09;;;8.08;100.00
54882;BME280;40775;51.448;4.742;2023-01-10T03:19:59;101415.06;;;8.11;100.00
54882;BME280;40775;51.448;4.742;2023-01-10T03:22:30;101422.78;;;8.08;100.00
54882;BME280;40775;51.448;4.742;2023-01-10T03:25:00;101423.63;;;8.07;100.00
54882;BME280;40775;51.448;4.742;2023-01-10T03:28:04;101418.28;;;8.04;100.00
54882;BME280;40775;51.448;4.742;2023-01-10T03:30:54;101424.69;;;8.12;100.00
54882;BME280;40775;51.448;4.742;2023-01-10T03:33:30;101427.19;;;8.09;100.00
54882;BME280;40775;51.448;4.742;2023-01-10T03:38:55;101431.25;;;8.23;100.00
54882;BME280;40775;51.448;4.742;2023-01-10T03:44:19;101443.16;;;8.17;100.00
54882;BME280;40775;51.448;4.742;2023-01-10T03:47:41;101440.66;;;8.20;100.00
54882;BME280;40775;51.448;4.742;2023-01-10T03:50:21;101449.22;;;8.16;100.00
54882;BME280;40775;51.448;4.742;2023-01-10T03:52:49;101445.00;;;8.19;100.00
54882;BME280;40775;51.448;4.742;2023-01-10T03:55:22;101456.25;;;8.17;100.00
54882;BME280;40775;51.448;4.742;2023-01-10T03:57:49;101460.59;;;8.16;100.00
54882;BME280;40775;51.448;4.742;2023-01-10T04:00:17;101464.22;;;8.20;100.00
54882;BME280;40775;51.448;4.742;2023-01-10T04:02:45;101455.34;;;8.16;100.00
54882;BME280;40775;51.448;4.742;2023-01-10T04:05:12;101461.81;;;8.24;100.00
54882;BME280;40775;51.448;4.742;2023-01-10T04:07:39;101472.00;;;8.18;100.00
54882;BME280;40775;51.448;4.742;2023-01-10T04:10:07;101467.59;;;8.17;100.00
54882;BME280;40775;51.448;4.742;2023-01-10T04:12:34;101466.81;;;8.20;100.00
54882;BME280;40775;51.448;4.742;2023-01-10T04:15:02;101457.84;;;8.13;100.00
54882;BME280;40775;51.448;4.742;2023-01-10T04:17:29;101463.78;;;8.09;100.00
54882;BME280;40775;51.448;4.742;2023-01-10T04:19:56;101458.38;;;8.04;100.00
54882;BME280;40775;51.448;4.742;2023-01-10T04:22:23;101467.88;;;8.02;100.00
54882;BME280;40775;51.448;4.742;2023-01-10T04:24:50;101471.41;;;8.03;100.00
54882;BME280;40775;51.448;4.742;2023-01-10T04:27:19;101478.41;;;8.04;100.00
54882;BME280;40775;51.448;4.742;2023-01-10T04:29:46;101505.00;;;7.94;100.00
54882;BME280;40775;51.448;4.742;2023-01-10T04:32:13;101494.41;;;7.91;100.00
54882;BME280;40775;51.448;4.742;2023-01-10T04:34:40;101487.53;;;7.93;100.00
54882;BME280;40775;51.448;4.742;2023-01-10T04:37:07;101485.69;;;7.90;100.00
54882;BME280;40775;51.448;4.742;2023-01-10T04:39:34;101484.91;;;7.93;100.00
54882;BME280;40775;51.448;4.742;2023-01-10T04:42:01;101495.13;;;7.87;100.00
54882;BME280;40775;51.448;4.742;2023-01-10T04:44:28;101498.56;;;7.86;100.00
54882;BME280;40775;51.448;4.742;2023-01-10T04:46:55;101500.47;;;7.90;100.00
54882;BME280;40775;51.448;4.742;2023-01-10T04:49:22;101509.97;;;7.88;100.00
54882;BME280;40775;51.448;4.742;2023-01-10T04:51:50;101512.03;;;7.95;100.00
54882;BME280;40775;51.448;4.742;2023-01-10T04:54:21;101516.44;;;7.96;100.00
54882;BME280;40775;51.448;4.742;2023-01-10T04:56:48;101527.91;;;7.99;100.00
54882;BME280;40775;51.448;4.742;2023-01-10T04:59:15;101536.06;;;8.07;100.00
54882;BME280;40775;51.448;4.742;2023-01-10T05:01:43;101535.69;;;7.98;100.00
54882;BME280;40775;51.448;4.742;2023-01-10T05:04:10;101538.56;;;8.04;100.00
54882;BME280;40775;51.448;4.742;2023-01-10T05:06:38;101541.59;;;7.94;100.00
54882;BME280;40775;51.448;4.742;2023-01-10T05:09:09;101549.72;;;8.00;100.00
54882;BME280;40775;51.448;4.742;2023-01-10T05:11:36;101539.56;;;8.07;100.00
54882;BME280;40775;51.448;4.742;2023-01-10T05:14:03;101543.91;;;8.07;100.00
54882;BME280;40775;51.448;4.742;2023-01-10T05:16:30;101545.44;;;8.02;100.00
54882;BME280;40775;51.448;4.742;2023-01-10T05:18:57;101536.81;;;8.04;100.00
54882;BME280;40775;51.448;4.742;2023-01-10T05:21:24;101537.41;;;7.97;100.00
54882;BME280;40775;51.448;4.742;2023-01-10T05:23:52;101535.63;;;7.96;100.00
54882;BME280;40775;51.448;4.742;2023-01-10T05:26:22;101541.59;;;7.94;100.00
54882;BME280;40775;51.448;4.742;2023-01-10T05:28:49;101545.94;;;7.93;100.00
54882;BME280;40775;51.448;4.742;2023-01-10T05:31:17;101552.88;;;7.93;100.00
54882;BME280;40775;51.448;4.742;2023-01-10T05:33:50;101554.75;;;7.95;100.00
54882;BME280;40775;51.448;4.742;2023-01-10T05:36:18;101556.06;;;7.86;100.00
54882;BME280;40775;51.448;4.742;2023-01-10T05:38:45;101567.22;;;7.82;100.00
54882;BME280;40775;51.448;4.742;2023-01-10T05:41:12;101566.66;;;7.89;100.00
54882;BME280;40775;51.448;4.742;2023-01-10T05:43:40;101566.22;;;7.78;100.00
54882;BME280;40775;51.448;4.742;2023-01-10T05:46:07;101569.59;;;7.75;100.00
54882;BME280;40775;51.448;4.742;2023-01-10T05:48:34;101578.75;;;7.87;100.00
54882;BME280;40775;51.448;4.742;2023-01-10T05:51:02;101589.53;;;7.73;100.00
54882;BME280;40775;51.448;4.742;2023-01-10T05:53:29;101588.63;;;7.73;100.00
54882;BME280;40775;51.448;4.742;2023-01-10T05:56:00;101596.69;;;7.78;100.00
54882;BME280;40775;51.448;4.742;2023-01-10T05:58:28;101596.28;;;7.68;100.00
54882;BME280;40775;51.448;4.742;2023-01-10T06:00:56;101604.50;;;7.78;100.00
54882;BME280;40775;51.448;4.742;2023-01-10T06:03:24;101606.38;;;7.80;100.00
54882;BME280;40775;51.448;4.742;2023-01-10T06:05:53;101611.47;;;7.77;100.00
54882;BME280;40775;51.448;4.742;2023-01-10T06:08:21;101607.25;;;7.81;100.00
54882;BME280;40775;51.448;4.742;2023-01-10T06:10:49;101608.97;;;7.80;100.00
54882;BME280;40775;51.448;4.742;2023-01-10T06:13:16;101607.91;;;7.75;100.00
54882;BME280;40775;51.448;4.742;2023-01-10T06:15:43;101601.66;;;7.71;100.00
54882;BME280;40775;51.448;4.742;2023-01-10T06:18:10;101601.06;;;7.79;100.00
54882;BME280;40775;51.448;4.742;2023-01-10T06:20:39;101587.06;;;7.77;100.00
54882;BME280;40775;51.448;4.742;2023-01-10T06:23:07;101589.78;;;7.80;100.00
54882;BME280;40775;51.448;4.742;2023-01-10T06:25:35;101607.13;;;7.78;100.00
54882;BME280;40775;51.448;4.742;2023-01-10T06:28:12;101602.88;;;7.80;100.00
54882;BME280;40775;51.448;4.742;2023-01-10T06:30:40;101602.16;;;7.84;100.00
54882;BME280;40775;51.448;4.742;2023-01-10T06:33:10;101603.94;;;7.85;100.00
54882;BME280;40775;51.448;4.742;2023-01-10T06:35:37;101593.81;;;7.92;100.00
54882;BME280;40775;51.448;4.742;2023-01-10T06:38:05;101595.28;;;7.86;100.00
54882;BME280;40775;51.448;4.742;2023-01-10T06:40:32;101601.66;;;7.71;100.00
54882;BME280;40775;51.448;4.742;2023-01-10T06:42:59;101614.47;;;7.67;100.00
54882;BME280;40775;51.448;4.742;2023-01-10T06:45:26;101632.84;;;8.49;100.00
54882;BME280;40775;51.448;4.742;2023-01-10T06:47:53;101623.50;;;10.67;100.00
54882;BME280;40775;51.448;4.742;2023-01-10T06:50:20;101627.03;;;11.53;100.00
54882;BME280;40775;51.448;4.742;2023-01-10T06:52:58;101623.41;;;12.11;100.00
54882;BME280;40775;51.448;4.742;2023-01-10T06:55:26;101623.53;;;12.50;100.00
54882;BME280;40775;51.448;4.742;2023-01-10T06:57:59;101617.88;;;12.69;100.00
54882;BME280;40775;51.448;4.742;2023-01-10T07:00:28;101605.09;;;12.86;100.00
54882;BME280;40775;51.448;4.742;2023-01-10T07:02:58;101618.56;;;12.98;100.00
54882;BME280;40775;51.448;4.742;2023-01-10T07:05:25;101621.38;;;13.08;100.00
54882;BME280;40775;51.448;4.742;2023-01-10T07:07:52;101614.63;;;13.17;100.00
54882;BME280;40775;51.448;4.742;2023-01-10T07:10:19;101627.94;;;13.23;100.00
54882;BME280;40775;51.448;4.742;2023-01-10T07:12:46;101628.06;;;13.29;100.00
54882;BME280;40775;51.448;4.742;2023-01-10T07:15:13;101643.09;;;13.34;100.00
54882;BME280;40775;51.448;4.742;2023-01-10T07:17:40;101652.00;;;13.39;100.00
54882;BME280;40775;51.448;4.742;2023-01-10T07:20:08;101654.75;;;13.43;100.00
54882;BME280;40775;51.448;4.742;2023-01-10T07:22:36;101649.53;;;13.46;100.00
54882;BME280;40775;51.448;4.742;2023-01-10T07:25:04;101662.72;;;13.46;100.00
54882;BME280;40775;51.448;4.742;2023-01-10T07:27:32;101666.31;;;13.50;100.00
54882;BME280;40775;51.448;4.742;2023-01-10T07:29:59;101673.41;;;13.52;100.00
54882;BME280;40775;51.448;4.742;2023-01-10T07:32:26;101669.94;;;13.55;100.00
54882;BME280;40775;51.448;4.742;2023-01-10T07:34:53;101670.00;;;13.58;100.00
54882;BME280;40775;51.448;4.742;2023-01-10T07:37:20;101662.09;;;13.58;100.00
54882;BME280;40775;51.448;4.742;2023-01-10T07:39:48;101663.94;;;13.62;100.00
54882;BME280;40775;51.448;4.742;2023-01-10T07:42:15;101678.91;;;13.63;100.00
54882;BME280;40775;51.448;4.742;2023-01-10T07:44:42;101677.22;;;13.67;100.00
54882;BME280;40775;51.448;4.742;2023-01-10T07:47:09;101669.31;;;13.68;100.00
54882;BME280;40775;51.448;4.742;2023-01-10T07:49:36;101672.84;;;13.69;100.00
54882;BME280;40775;51.448;4.742;2023-01-10T07:52:03;101679.09;;;13.71;100.00
54882;BME280;40775;51.448;4.742;2023-01-10T07:54:31;101666.78;;;13.71;100.00
54882;BME280;40775;51.448;4.742;2023-01-10T07:56:58;101673.84;;;13.72;100.00
54882;BME280;40775;51.448;4.742;2023-01-10T07:59:25;101676.50;;;13.74;100.00
54882;BME280;40775;51.448;4.742;2023-01-10T08:01:52;101679.19;;;13.75;100.00
54882;BME280;40775;51.448;4.742;2023-01-10T08:04:19;101667.72;;;13.75;100.00
54882;BME280;40775;51.448;4.742;2023-01-10T08:06:46;101673.03;;;13.76;100.00
54882;BME280;40775;51.448;4.742;2023-01-10T08:09:13;101673.97;;;13.78;100.00
54882;BME280;40775;51.448;4.742;2023-01-10T08:11:40;101669.56;;;13.79;100.00
54882;BME280;40775;51.448;4.742;2023-01-10T08:14:08;101676.63;;;13.80;100.00
54882;BME280;40775;51.448;4.742;2023-01-10T08:16:35;101661.69;;;13.80;100.00
54882;BME280;40775;51.448;4.742;2023-01-10T08:19:02;101675.75;;;13.81;100.00
54882;BME280;40775;51.448;4.742;2023-01-10T08:21:29;101666.09;;;13.81;100.00
54882;BME280;40775;51.448;4.742;2023-01-10T08:23:56;101670.53;;;13.84;100.00
54882;BME280;40775;51.448;4.742;2023-01-10T08:26:23;101670.53;;;13.84;100.00
54882;BME280;40775;51.448;4.742;2023-01-10T08:28:50;101674.06;;;13.84;100.00
54882;BME280;40775;51.448;4.742;2023-01-10T08:31:17;101672.28;;;13.83;100.00
54882;BME280;40775;51.448;4.742;2023-01-10T08:33:44;101671.41;;;13.83;100.00
54882;BME280;40775;51.448;4.742;2023-01-10T08:36:19;101663.53;;;13.84;100.00
54882;BME280;40775;51.448;4.742;2023-01-10T08:38:47;101677.59;;;13.85;100.00
54882;BME280;40775;51.448;4.742;2023-01-10T08:41:16;101674.91;;;13.82;100.00
54882;BME280;40775;51.448;4.742;2023-01-10T08:43:43;101674.03;;;13.83;100.00
54882;BME280;40775;51.448;4.742;2023-01-10T08:46:10;101667.03;;;13.83;100.00
54882;BME280;40775;51.448;4.742;2023-01-10T08:48:37;101653.81;;;13.83;100.00
54882;BME280;40775;51.448;4.742;2023-01-10T08:51:08;101676.69;;;13.83;100.00
54882;BME280;40775;51.448;4.742;2023-01-10T08:53:38;101665.25;;;13.82;100.00
54882;BME280;40775;51.448;4.742;2023-01-10T08:56:06;101665.25;;;13.82;100.00
54882;BME280;40775;51.448;4.742;2023-01-10T08:58:33;101666.09;;;13.81;100.00
54882;BME280;40775;51.448;4.742;2023-01-10T09:01:07;101674.00;;;13.81;100.00
54882;BME280;40775;51.448;4.742;2023-01-10T09:03:35;101662.59;;;13.82;100.00
54882;BME280;40775;51.448;4.742;2023-01-10T09:06:02;101669.66;;;13.83;100.00
54882;BME280;40775;51.448;4.742;2023-01-10T09:08:29;101674.88;;;13.80;100.00
54882;BME280;40775;51.448;4.742;2023-01-10T09:10:59;101666.97;;;13.80;100.00
54882;BME280;40775;51.448;4.742;2023-01-10T09:13:28;101668.75;;;13.81;100.00
54882;BME280;40775;51.448;4.742;2023-01-10T09:15:55;101663.47;;;13.81;100.00
54882;BME280;40775;51.448;4.742;2023-01-10T09:18:23;101659.09;;;13.83;100.00
54882;BME280;40775;51.448;4.742;2023-01-10T09:20:51;101650.31;;;13.84;100.00
54882;BME280;40775;51.448;4.742;2023-01-10T09:23:20;101658.25;;;13.86;100.00
54882;BME280;40775;51.448;4.742;2023-01-10T09:25:53;101652.13;;;13.87;100.00
54882;BME280;40775;51.448;4.742;2023-01-10T09:28:21;101653.88;;;13.86;100.00
54882;BME280;40775;51.448;4.742;2023-01-10T09:30:50;101648.59;;;13.86;100.00
54882;BME280;40775;51.448;4.742;2023-01-10T09:33:17;101647.69;;;13.84;100.00
54882;BME280;40775;51.448;4.742;2023-01-10T09:35:44;101640.66;;;13.85;100.00
54882;BME280;40775;51.448;4.742;2023-01-10T09:38:16;101645.97;;;13.86;100.00
54882;BME280;40775;51.448;4.742;2023-01-10T09:41:22;101639.84;;;13.89;100.00
54882;BME280;40775;51.448;4.742;2023-01-10T09:44:24;101641.59;;;13.88;100.00
54882;BME280;40775;51.448;4.742;2023-01-10T09:47:47;101638.09;;;13.89;100.00
54882;BME280;40775;51.448;4.742;2023-01-10T09:50:27;101645.16;;;13.90;100.00
54882;BME280;40775;51.448;4.742;2023-01-10T09:53:08;101632.72;;;13.85;100.00
54882;BME280;40775;51.448;4.742;2023-01-10T09:55:37;101645.97;;;13.86;100.00
54882;BME280;40775;51.448;4.742;2023-01-10T09:58:16;101638.03;;;13.86;100.00
54882;BME280;40775;51.448;4.742;2023-01-10T10:01:06;101624.84;;;13.86;100.00
54882;BME280;40775;51.448;4.742;2023-01-10T10:06:28;101622.19;;;13.85;100.00
54882;BME280;40775;51.448;4.742;2023-01-10T10:08:56;101614.22;;;13.83;100.00
54882;BME280;40775;51.448;4.742;2023-01-10T10:14:24;101619.44;;;13.80;100.00
54882;BME280;40775;51.448;4.742;2023-01-10T10:17:31;101618.56;;;13.80;100.00
54882;BME280;40775;51.448;4.742;2023-01-10T10:26:11;101604.22;;;13.67;100.00
54882;BME280;40775;51.448;4.742;2023-01-10T10:31:43;101594.59;;;13.69;100.00
54882;BME280;40775;51.448;4.742;2023-01-10T10:34:34;101592.06;;;13.74;100.00
54882;BME280;40775;51.448;4.742;2023-01-10T10:37:51;101580.69;;;13.78;100.00
54882;BME280;40775;51.448;4.742;2023-01-10T10:40:25;101582.44;;;13.76;100.00
54882;BME280;40775;51.448;4.742;2023-01-10T10:42:56;101582.44;;;13.77;100.00
54882;BME280;40775;51.448;4.742;2023-01-10T10:45:41;101566.56;;;13.74;100.00
54882;BME280;40775;51.448;4.742;2023-01-10T10:48:20;101565.66;;;13.72;100.00
54882;BME280;40775;51.448;4.742;2023-01-10T10:53:30;101552.44;;;13.72;100.00
54882;BME280;40775;51.448;4.742;2023-01-10T10:56:00;101548.94;;;13.73;100.00
54882;BME280;40775;51.448;4.742;2023-01-10T10:58:28;101554.22;;;13.73;100.00
54882;BME280;40775;51.448;4.742;2023-01-10T11:00:59;101541.03;;;13.73;100.00
54882;BME280;40775;51.448;4.742;2023-01-10T11:06:17;101533.94;;;13.71;100.00
54882;BME280;40775;51.448;4.742;2023-01-10T11:08:47;101526.91;;;13.70;100.00
54882;BME280;40775;51.448;4.742;2023-01-10T11:14:06;101525.19;;;13.72;100.00
54882;BME280;40775;51.448;4.742;2023-01-10T11:16:40;101518.94;;;13.68;100.00
54882;BME280;40775;51.448;4.742;2023-01-10T11:19:24;101525.16;;;13.70;100.00
54882;BME280;40775;51.448;4.742;2023-01-10T11:22:02;101529.56;;;13.71;100.00
54882;BME280;40775;51.448;4.742;2023-01-10T11:24:48;101528.69;;;13.72;100.00
54882;BME280;40775;51.448;4.742;2023-01-10T11:27:43;101522.56;;;13.73;100.00
54882;BME280;40775;51.448;4.742;2023-01-10T11:32:53;101513.72;;;13.71;100.00
54882;BME280;40775;51.448;4.742;2023-01-10T11:35:33;101515.41;;;13.69;100.00
54882;BME280;40775;51.448;4.742;2023-01-10T11:43:44;101512.84;;;13.71;100.00
54882;BME280;40775;51.448;4.742;2023-01-10T11:46:18;101511.97;;;13.70;100.00
54882;BME280;40775;51.448;4.742;2023-01-10T11:49:04;101502.22;;;13.69;100.00
54882;BME280;40775;51.448;4.742;2023-01-10T11:51:55;101493.44;;;13.69;100.00
54882;BME280;40775;51.448;4.742;2023-01-10T11:54:25;101482.84;;;13.67;100.00
54882;BME280;40775;51.448;4.742;2023-01-10T11:57:06;101489.97;;;13.71;100.00
54882;BME280;40775;51.448;4.742;2023-01-10T11:59:34;101482.88;;;13.69;100.00
54882;BME280;40775;51.448;4.742;2023-01-10T12:02:43;101475.84;;;13.69;100.00
54882;BME280;40775;51.448;4.742;2023-01-10T12:05:20;101471.44;;;13.68;100.00
54882;BME280;40775;51.448;4.742;2023-01-10T12:08:04;101472.28;;;13.67;100.00
54882;BME280;40775;51.448;4.742;2023-01-10T12:10:36;101460.00;;;13.68;100.00
54882;BME280;40775;51.448;4.742;2023-01-10T12:13:21;101459.03;;;13.63;100.00
54882;BME280;40775;51.448;4.742;2023-01-10T12:15:48;101461.72;;;13.66;100.00
54882;BME280;40775;51.448;4.742;2023-01-10T12:18:15;101443.22;;;13.64;100.00
54882;BME280;40775;51.448;4.742;2023-01-10T12:20:51;101437.97;;;13.66;100.00
54882;BME280;40775;51.448;4.742;2023-01-10T12:23:22;101429.16;;;13.65;100.00
54882;BME280;40775;51.448;4.742;2023-01-10T12:25:51;101423.94;;;13.68;100.00
54882;BME280;40775;51.448;4.742;2023-01-10T12:28:37;101417.75;;;13.66;100.00
54882;BME280;40775;51.448;4.742;2023-01-10T12:31:12;101415.97;;;13.65;100.00
54882;BME280;40775;51.448;4.742;2023-01-10T12:33:48;101417.78;;;13.68;100.00
54882;BME280;40775;51.448;4.742;2023-01-10T12:39:21;101415.03;;;13.61;100.00
54882;BME280;40775;51.448;4.742;2023-01-10T12:42:27;101405.28;;;13.57;100.00
54882;BME280;40775;51.448;4.742;2023-01-10T12:45:49;101404.44;;;13.58;100.00
54882;BME280;40775;51.448;4.742;2023-01-10T12:48:28;101393.91;;;13.60;100.00
54882;BME280;40775;51.448;4.742;2023-01-10T12:51:05;101402.72;;;13.60;100.00
54882;BME280;40775;51.448;4.742;2023-01-10T12:53:53;101389.50;;;13.59;100.00
54882;BME280;40775;51.448;4.742;2023-01-10T12:56:22;101390.31;;;13.55;100.00
54882;BME280;40775;51.448;4.742;2023-01-10T12:59:15;101386.84;;;13.57;100.00
54882;BME280;40775;51.448;4.742;2023-01-10T13:01:58;101379.78;;;13.56;100.00
54882;BME280;40775;51.448;4.742;2023-01-10T13:04:29;101376.28;;;13.57;100.00
54882;BME280;40775;51.448;4.742;2023-01-10T13:06:59;101377.22;;;13.61;100.00
54882;BME280;40775;51.448;4.742;2023-01-10T13:09:28;101364.03;;;13.61;100.00
54882;BME280;40775;51.448;4.742;2023-01-10T13:14:50;101363.94;;;13.56;100.00
54882;BME280;40775;51.448;4.742;2023-01-10T13:22:58;101346.38;;;13.57;100.00
54882;BME280;40775;51.448;4.742;2023-01-10T13:25:33;101337.59;;;13.58;100.00
54882;BME280;40775;51.448;4.742;2023-01-10T13:28:20;101334.97;;;13.58;100.00
54882;BME280;40775;51.448;4.742;2023-01-10T13:30:58;101322.66;;;13.58;100.00
54882;BME280;40775;51.448;4.742;2023-01-10T13:33:58;101324.44;;;13.59;100.00
54882;BME280;40775;51.448;4.742;2023-01-10T13:36:33;101325.31;;;13.60;100.00
54882;BME280;40775;51.448;4.742;2023-01-10T13:39:06;101305.03;;;13.56;100.00
54882;BME280;40775;51.448;4.742;2023-01-10T14:01:39;101269.00;;;13.58;100.00
54882;BME280;40775;51.448;4.742;2023-01-10T14:04:29;101258.47;;;13.58;100.00
54882;BME280;40775;51.448;4.742;2023-01-10T14:07:02;101243.50;;;13.57;100.00
54882;BME280;40775;51.448;4.742;2023-01-10T14:09:36;101236.47;;;13.59;100.00
54882;BME280;40775;51.448;4.742;2023-01-10T14:15:04;101228.56;;;13.59;100.00
54882;BME280;40775;51.448;4.742;2023-01-10T14:17:35;101204.75;;;13.53;100.00
54882;BME280;40775;51.448;4.742;2023-01-10T14:22:38;101192.53;;;13.59;100.00
54882;BME280;40775;51.448;4.742;2023-01-10T14:25:20;101176.66;;;13.56;100.00
54882;BME280;40775;51.448;4.742;2023-01-10T14:27:49;101167.84;;;13.54;100.00
54882;BME280;40775;51.448;4.742;2023-01-10T14:30:34;101166.09;;;13.56;100.00
54882;BME280;40775;51.448;4.742;2023-01-10T14:33:19;101160.78;;;13.53;100.00
54882;BME280;40775;51.448;4.742;2023-01-10T14:35:53;101150.22;;;13.50;100.00
54882;BME280;40775;51.448;4.742;2023-01-10T14:38:31;101146.69;;;13.51;100.00
54882;BME280;40775;51.448;4.742;2023-01-10T14:41:03;101140.56;;;13.52;100.00
54882;BME280;40775;51.448;4.742;2023-01-10T14:43:51;101139.66;;;13.50;100.00
54882;BME280;40775;51.448;4.742;2023-01-10T14:52:36;101104.44;;;13.47;100.00
54882;BME280;40775;51.448;4.742;2023-01-10T14:55:15;101105.31;;;13.44;100.00
54882;BME280;40775;51.448;4.742;2023-01-10T14:57:59;101099.19;;;13.48;100.00